West Potsdam, New York
Current Conditions -  °F | °C
As of 10:53 AM on Monday 26 Jan 2015 (Local Time) from KMSS Reporting Station
Clear Clear  
Wind Chill: -14°   Ceiling: Unl
Heat Index:   Visibility: 10mi
Dew Point: -5°   Wind: 13mph
Humidity: 69%   Direction: 80°E
Pressure: 30.2"   Gusts: NA
Location:  44.6469°N, 74.9157°W
Report Text: KMSS 261553Z AUTO 08011KT 10SM CLR M16/M21 A3020 RMK AO2 SLP240 T11611206
Loading
Personal Weather Stations






























Interactive Weather Map New forecast layout! Learn more

10-Day Weather Forecast

Advertisements
Track Severe Weather on mobile